Pindi Bhattian Weather



Pindi Bhattian's Current Weather

Temprature 42.37o few clouds

few clouds

Rain: 0 %

Min Temprature42.37o
Max Temprature42.37o
Humidity24
Wind Speed0.68 m/h
Sun Rise05:16:59
Sun Set19:09:31
Current Time: 24-Jul-2021 16:58:27
Lat/Lon: 31.8978, 73.273




Pindi Bhattian's Geo Location



Pindi Bhattian's Weather Forecast

Time Overall Temp Min Temp Max Temp Humidity Wind Speed Rain
24-Jul-2021 (Sat)
17:00:00 few clouds 42.370 42.370 42.370 24 0.68 m/h 0 %
20:00:00 few clouds 41.720 40.410 41.720 26 1.34 m/h 0 %
23:00:00 few clouds 39.480 38.030 39.480 32 3.05 m/h 0 %
25-Jul-2021 (Sun)
02:00:00 clear sky 36.090 36.090 36.090 42 3.16 m/h 0 %
05:00:00 scattered clouds 34.820 34.820 34.820 46 2.65 m/h 0 %
08:00:00 broken clouds 37.840 37.840 37.840 38 3.45 m/h 0 %
11:00:00 broken clouds 41.980 41.980 41.980 28 2.09 m/h 0 %
14:00:00 clear sky 44.800 44.800 44.800 21 1.64 m/h 0 %
17:00:00 few clouds 44.910 44.910 44.910 19 2.11 m/h 0 %
20:00:00 broken clouds 41.510 41.510 41.510 27 3.61 m/h 0 %
23:00:00 broken clouds 37.530 37.530 37.530 41 6.57 m/h 0 %
26-Jul-2021 (Mon)
02:00:00 overcast clouds 35.590 35.590 35.590 49 5.35 m/h 0 %
05:00:00 broken clouds 34.030 34.030 34.030 55 4.97 m/h 0 %
08:00:00 scattered clouds 36.280 36.280 36.280 48 4.31 m/h 0 %
11:00:00 broken clouds 41.760 41.760 41.760 31 1.39 m/h 0 %
14:00:00 scattered clouds 44.940 44.940 44.940 23 1.18 m/h 0 %
17:00:00 scattered clouds 43.630 43.630 43.630 24 2.54 m/h 0 %
20:00:00 overcast clouds 37.780 37.780 37.780 41 7.05 m/h 0 %
23:00:00 overcast clouds 36.630 36.630 36.630 42 6.5 m/h 0 %
27-Jul-2021 (Tue)
02:00:00 overcast clouds 34.790 34.790 34.790 49 4.93 m/h 0 %
05:00:00 overcast clouds 32.490 32.490 32.490 61 4.67 m/h 0 %
08:00:00 broken clouds 35.090 35.090 35.090 47 3.38 m/h 0 %
11:00:00 broken clouds 38.510 38.510 38.510 38 3.79 m/h 0 %
14:00:00 overcast clouds 40.750 40.750 40.750 33 3.47 m/h 0 %
17:00:00 light rain 39.730 39.730 39.730 35 3.72 m/h 37 %
20:00:00 overcast clouds 37.740 37.740 37.740 38 5.73 m/h 0 %
23:00:00 light rain 34.190 34.190 34.190 49 6.15 m/h 57 %
28-Jul-2021 (Wed)
02:00:00 light rain 32.240 32.240 32.240 57 4.72 m/h 131 %
05:00:00 light rain 30.420 30.420 30.420 66 3.81 m/h 103 %
08:00:00 overcast clouds 31.560 31.560 31.560 62 4.54 m/h 0 %
11:00:00 overcast clouds 34.860 34.860 34.860 49 3.94 m/h 0 %
14:00:00 light rain 33.440 33.440 33.440 56 5.44 m/h 106 %
17:00:00 light rain 32.860 32.860 32.860 58 5.53 m/h 102 %
20:00:00 light rain 29.890 29.890 29.890 71 5.56 m/h 13 %
23:00:00 overcast clouds 29.090 29.090 29.090 75 3.8 m/h 0 %
29-Jul-2021 (Thu)
02:00:00 light rain 28.660 28.660 28.660 77 2.35 m/h 12 %
05:00:00 light rain 27.900 27.900 27.900 81 2.55 m/h 237 %
08:00:00 light rain 29.250 29.250 29.250 74 2.91 m/h 71 %
11:00:00 broken clouds 32.750 32.750 32.750 59 1.96 m/h 0 %
14:00:00 broken clouds 36.380 36.380 36.380 46 2.34 m/h 0 %

Famous Cities (60)